Pagrindinis puslapis
METAR-TAF:

METAR-TAF

Oro uostai :

Aidinas, Turkija

platuma: 37-48-54N, ilguma: 27-53-21E, Aukštis: 31 m

METAR: trūkstamas

Laikas: 02:09 (23:09 UTC)

Prognozė

Ataskaita buvo paskelbta 9 valandos ir 29 minutes, ne 13:40 UTC
Prognozė galioja nuo 05 metu 15 UTC su 05 metu 24 UTC
Vėjas 2 kt nuo kintamojo kryptimis
Matomumas 10 km arba daugiau
Išsisklaidę debesys ne aukštis 3000 ft
Su prošvaistėmis ne aukštis 10000 ft
lietus
Laikinai
nuo 05 metu 15 UTC su 05 metu 17 UTC
Vėjas 12 kt iš Pietų
Mažai debesys ne aukštis 1500 ft, Liūtiniai kamuoliniai debesys.
Su prošvaistėmis ne aukštis 2500 ft
perkūnija, lietus

TAF: LTBD 051340Z 0515/0524 VRB02KT 9999 -SHRA SCT030 BKN100 TEMPO 0515/0517 18012KT -TSRA FEW015CB BKN025

Orai ataskaitas ir orų prognozės (METAR, TAF).

turimą stotys yra geltonos ir raudonos taškus žemėlapyje.

Perkelti pele per norėdami pamatyti stoties vardą.

Tada spustelėkite, norėdami matyti oro stebėjimo ir prognozės.

Norėdami pakeisti žemėlapį: spustelėkite ant žalios mygtukų su juodo kryžiaus žemyn,; žalią mygtuką su brūkšneliu, jei norite nutolinti; arba žalių rodyklių gretimoms žemėlapius.


METAR-TAF: